sensor_id;sensor_type;location;lat;lon;timestamp;P1;durP1;ratioP1;P2;durP2;ratioP2
41233;SDS011;26968;42.686;23.352;2022-09-28T00:00:49;21.10;;;14.32;;
41233;SDS011;26968;42.686;23.352;2022-09-28T00:03:14;20.55;;;14.07;;
41233;SDS011;26968;42.686;23.352;2022-09-28T00:05:40;34.17;;;13.85;;
41233;SDS011;26968;42.686;23.352;2022-09-28T00:08:05;22.58;;;13.18;;
41233;SDS011;26968;42.686;23.352;2022-09-28T00:10:30;19.02;;;11.80;;
41233;SDS011;26968;42.686;23.352;2022-09-28T00:12:57;17.60;;;12.10;;
41233;SDS011;26968;42.686;23.352;2022-09-28T00:15:24;16.13;;;11.90;;
41233;SDS011;26968;42.686;23.352;2022-09-28T00:17:50;18.15;;;12.95;;
41233;SDS011;26968;42.686;23.352;2022-09-28T00:20:15;19.25;;;12.23;;
41233;SDS011;26968;42.686;23.352;2022-09-28T00:22:42;19.88;;;11.70;;
41233;SDS011;26968;42.686;23.352;2022-09-28T00:25:07;17.02;;;11.75;;
41233;SDS011;26968;42.686;23.352;2022-09-28T00:27:33;19.80;;;11.93;;
41233;SDS011;26968;42.686;23.352;2022-09-28T00:29:58;24.77;;;12.05;;
41233;SDS011;26968;42.686;23.352;2022-09-28T00:32:24;19.40;;;11.75;;
41233;SDS011;26968;42.686;23.352;2022-09-28T00:34:50;20.10;;;11.55;;
41233;SDS011;26968;42.686;23.352;2022-09-28T00:37:16;18.17;;;12.80;;
41233;SDS011;26968;42.686;23.352;2022-09-28T00:39:43;17.70;;;11.27;;
41233;SDS011;26968;42.686;23.352;2022-09-28T00:42:10;23.35;;;12.50;;
41233;SDS011;26968;42.686;23.352;2022-09-28T00:52:38;27.10;;;12.68;;
41233;SDS011;26968;42.686;23.352;2022-09-28T00:55:15;27.75;;;11.63;;
41233;SDS011;26968;42.686;23.352;2022-09-28T00:57:44;25.75;;;12.10;;
41233;SDS011;26968;42.686;23.352;2022-09-28T01:00:15;84.90;;;16.95;;
41233;SDS011;26968;42.686;23.352;2022-09-28T01:02:41;100.47;;;18.02;;
41233;SDS011;26968;42.686;23.352;2022-09-28T01:05:08;110.95;;;18.05;;
41233;SDS011;26968;42.686;23.352;2022-09-28T01:07:35;192.93;;;19.42;;
41233;SDS011;26968;42.686;23.352;2022-09-28T01:10:02;157.77;;;21.20;;
41233;SDS011;26968;42.686;23.352;2022-09-28T01:12:29;123.80;;;18.85;;
41233;SDS011;26968;42.686;23.352;2022-09-28T01:14:55;89.82;;;17.15;;
41233;SDS011;26968;42.686;23.352;2022-09-28T01:31:44;97.30;;;15.30;;
41233;SDS011;26968;42.686;23.352;2022-09-28T01:34:14;113.68;;;16.63;;
41233;SDS011;26968;42.686;23.352;2022-09-28T01:36:52;161.38;;;15.52;;
41233;SDS011;26968;42.686;23.352;2022-09-28T01:39:27;118.72;;;15.00;;
41233;SDS011;26968;42.686;23.352;2022-09-28T01:42:08;151.70;;;17.17;;
41233;SDS011;26968;42.686;23.352;2022-09-28T01:47:16;66.00;;;14.75;;
41233;SDS011;26968;42.686;23.352;2022-09-28T01:49:47;80.00;;;15.85;;
41233;SDS011;26968;42.686;23.352;2022-09-28T01:52:21;241.07;;;18.25;;
41233;SDS011;26968;42.686;23.352;2022-09-28T01:54:53;236.88;;;19.60;;
41233;SDS011;26968;42.686;23.352;2022-09-28T02:00:10;153.27;;;16.17;;
41233;SDS011;26968;42.686;23.352;2022-09-28T02:02:40;113.30;;;17.15;;
41233;SDS011;26968;42.686;23.352;2022-09-28T02:07:39;139.40;;;16.60;;
41233;SDS011;26968;42.686;23.352;2022-09-28T02:10:13;119.32;;;14.00;;
41233;SDS011;26968;42.686;23.352;2022-09-28T02:12:45;126.82;;;15.70;;
41233;SDS011;26968;42.686;23.352;2022-09-28T02:15:19;96.63;;;16.65;;
41233;SDS011;26968;42.686;23.352;2022-09-28T02:17:49;122.82;;;16.60;;
41233;SDS011;26968;42.686;23.352;2022-09-28T02:20:16;66.18;;;15.50;;
41233;SDS011;26968;42.686;23.352;2022-09-28T02:22:43;63.20;;;14.63;;
41233;SDS011;26968;42.686;23.352;2022-09-28T02:25:29;121.53;;;16.83;;
41233;SDS011;26968;42.686;23.352;2022-09-28T02:28:11;55.22;;;13.88;;
41233;SDS011;26968;42.686;23.352;2022-09-28T02:30:38;54.90;;;14.63;;
41233;SDS011;26968;42.686;23.352;2022-09-28T02:33:13;53.95;;;14.88;;
41233;SDS011;26968;42.686;23.352;2022-09-28T02:35:42;39.05;;;14.15;;
41233;SDS011;26968;42.686;23.352;2022-09-28T02:38:11;34.00;;;14.40;;
41233;SDS011;26968;42.686;23.352;2022-09-28T02:40:39;43.58;;;14.80;;
41233;SDS011;26968;42.686;23.352;2022-09-28T02:43:30;43.97;;;15.93;;
41233;SDS011;26968;42.686;23.352;2022-09-28T02:54:36;28.65;;;15.30;;
41233;SDS011;26968;42.686;23.352;2022-09-28T02:57:11;22.83;;;15.57;;
41233;SDS011;26968;42.686;23.352;2022-09-28T03:00:06;22.55;;;14.95;;
41233;SDS011;26968;42.686;23.352;2022-09-28T03:05:21;29.48;;;14.73;;
41233;SDS011;26968;42.686;23.352;2022-09-28T03:07:57;33.80;;;14.18;;
41233;SDS011;26968;42.686;23.352;2022-09-28T03:10:34;38.33;;;15.88;;
41233;SDS011;26968;42.686;23.352;2022-09-28T03:13:18;29.38;;;15.43;;
41233;SDS011;26968;42.686;23.352;2022-09-28T03:15:44;33.38;;;15.55;;
41233;SDS011;26968;42.686;23.352;2022-09-28T03:18:10;30.00;;;15.85;;
41233;SDS011;26968;42.686;23.352;2022-09-28T03:20:35;31.88;;;16.10;;
41233;SDS011;26968;42.686;23.352;2022-09-28T03:23:01;27.05;;;15.50;;
41233;SDS011;26968;42.686;23.352;2022-09-28T03:25:27;28.25;;;16.13;;
41233;SDS011;26968;42.686;23.352;2022-09-28T03:27:52;25.75;;;16.13;;
41233;SDS011;26968;42.686;23.352;2022-09-28T03:30:17;39.08;;;16.73;;
41233;SDS011;26968;42.686;23.352;2022-09-28T03:32:43;24.17;;;14.98;;
41233;SDS011;26968;42.686;23.352;2022-09-28T03:35:10;22.02;;;13.43;;
41233;SDS011;26968;42.686;23.352;2022-09-28T03:37:36;24.60;;;14.82;;
41233;SDS011;26968;42.686;23.352;2022-09-28T03:40:02;22.05;;;14.23;;
41233;SDS011;26968;42.686;23.352;2022-09-28T03:42:28;28.67;;;14.57;;
41233;SDS011;26968;42.686;23.352;2022-09-28T03:44:53;22.42;;;14.93;;
41233;SDS011;26968;42.686;23.352;2022-09-28T03:47:19;29.52;;;15.07;;
41233;SDS011;26968;42.686;23.352;2022-09-28T03:49:45;22.75;;;13.80;;
41233;SDS011;26968;42.686;23.352;2022-09-28T03:52:11;27.08;;;14.30;;
41233;SDS011;26968;42.686;23.352;2022-09-28T03:54:37;18.25;;;12.70;;
41233;SDS011;26968;42.686;23.352;2022-09-28T03:57:03;21.60;;;14.02;;
41233;SDS011;26968;42.686;23.352;2022-09-28T03:59:29;19.92;;;14.27;;
41233;SDS011;26968;42.686;23.352;2022-09-28T04:01:55;20.92;;;14.38;;
41233;SDS011;26968;42.686;23.352;2022-09-28T04:04:20;22.83;;;13.85;;
41233;SDS011;26968;42.686;23.352;2022-09-28T04:06:46;21.83;;;12.68;;
41233;SDS011;26968;42.686;23.352;2022-09-28T04:09:11;22.92;;;13.20;;
41233;SDS011;26968;42.686;23.352;2022-09-28T04:11:37;19.92;;;12.95;;
41233;SDS011;26968;42.686;23.352;2022-09-28T04:14:02;18.10;;;13.52;;
41233;SDS011;26968;42.686;23.352;2022-09-28T04:16:28;18.05;;;13.00;;
41233;SDS011;26968;42.686;23.352;2022-09-28T04:18:53;22.67;;;12.32;;
41233;SDS011;26968;42.686;23.352;2022-09-28T04:21:19;18.77;;;13.13;;
41233;SDS011;26968;42.686;23.352;2022-09-28T04:23:45;23.55;;;13.13;;
41233;SDS011;26968;42.686;23.352;2022-09-28T04:26:17;18.80;;;13.40;;
41233;SDS011;26968;42.686;23.352;2022-09-28T04:28:47;24.08;;;14.13;;
41233;SDS011;26968;42.686;23.352;2022-09-28T04:31:38;33.33;;;15.93;;
41233;SDS011;26968;42.686;23.352;2022-09-28T04:34:06;21.00;;;15.27;;
41233;SDS011;26968;42.686;23.352;2022-09-28T04:36:32;32.60;;;16.52;;
41233;SDS011;26968;42.686;23.352;2022-09-28T04:38:58;37.33;;;16.95;;
41233;SDS011;26968;42.686;23.352;2022-09-28T04:41:24;29.17;;;16.58;;
41233;SDS011;26968;42.686;23.352;2022-09-28T04:43:50;29.02;;;16.38;;
41233;SDS011;26968;42.686;23.352;2022-09-28T04:46:16;27.73;;;16.30;;
41233;SDS011;26968;42.686;23.352;2022-09-28T04:48:43;36.53;;;16.58;;
41233;SDS011;26968;42.686;23.352;2022-09-28T04:51:08;28.17;;;16.45;;
41233;SDS011;26968;42.686;23.352;2022-09-28T04:53:34;27.65;;;15.55;;
41233;SDS011;26968;42.686;23.352;2022-09-28T04:58:29;31.08;;;16.85;;
41233;SDS011;26968;42.686;23.352;2022-09-28T05:00:56;30.25;;;16.67;;
41233;SDS011;26968;42.686;23.352;2022-09-28T05:03:24;25.15;;;16.30;;
41233;SDS011;26968;42.686;23.352;2022-09-28T05:05:50;34.45;;;16.63;;
41233;SDS011;26968;42.686;23.352;2022-09-28T05:08:15;29.85;;;16.40;;
41233;SDS011;26968;42.686;23.352;2022-09-28T05:10:42;36.88;;;17.17;;
41233;SDS011;26968;42.686;23.352;2022-09-28T05:13:09;41.20;;;18.55;;
41233;SDS011;26968;42.686;23.352;2022-09-28T05:15:36;49.05;;;21.38;;
41233;SDS011;26968;42.686;23.352;2022-09-28T05:18:06;47.03;;;22.17;;
41233;SDS011;26968;42.686;23.352;2022-09-28T05:20:38;38.40;;;20.55;;
41233;SDS011;26968;42.686;23.352;2022-09-28T05:23:07;55.55;;;24.40;;
41233;SDS011;26968;42.686;23.352;2022-09-28T05:25:33;78.28;;;29.10;;
41233;SDS011;26968;42.686;23.352;2022-09-28T05:27:59;68.50;;;28.15;;
41233;SDS011;26968;42.686;23.352;2022-09-28T05:30:25;61.78;;;28.55;;
41233;SDS011;26968;42.686;23.352;2022-09-28T05:32:51;67.38;;;29.55;;
41233;SDS011;26968;42.686;23.352;2022-09-28T05:35:17;51.08;;;26.42;;
41233;SDS011;26968;42.686;23.352;2022-09-28T05:37:43;45.28;;;22.70;;
41233;SDS011;26968;42.686;23.352;2022-09-28T05:40:08;44.90;;;24.10;;
41233;SDS011;26968;42.686;23.352;2022-09-28T05:42:34;47.17;;;24.90;;
41233;SDS011;26968;42.686;23.352;2022-09-28T05:45:00;45.15;;;25.85;;
41233;SDS011;26968;42.686;23.352;2022-09-28T05:47:27;43.03;;;24.25;;
41233;SDS011;26968;42.686;23.352;2022-09-28T05:49:53;46.10;;;24.52;;
41233;SDS011;26968;42.686;23.352;2022-09-28T05:52:21;40.67;;;23.73;;
41233;SDS011;26968;42.686;23.352;2022-09-28T05:54:46;39.45;;;22.90;;
41233;SDS011;26968;42.686;23.352;2022-09-28T05:57:12;41.65;;;23.63;;
41233;SDS011;26968;42.686;23.352;2022-09-28T05:59:38;50.58;;;24.88;;
41233;SDS011;26968;42.686;23.352;2022-09-28T06:02:03;48.83;;;23.42;;
41233;SDS011;26968;42.686;23.352;2022-09-28T06:04:30;38.00;;;23.42;;
41233;SDS011;26968;42.686;23.352;2022-09-28T06:07:18;42.67;;;23.45;;
41233;SDS011;26968;42.686;23.352;2022-09-28T06:10:06;38.38;;;24.45;;
41233;SDS011;26968;42.686;23.352;2022-09-28T06:12:32;39.40;;;25.65;;
41233;SDS011;26968;42.686;23.352;2022-09-28T06:14:58;45.00;;;25.00;;
41233;SDS011;26968;42.686;23.352;2022-09-28T06:17:25;50.90;;;27.02;;
41233;SDS011;26968;42.686;23.352;2022-09-28T06:19:50;39.15;;;25.45;;
41233;SDS011;26968;42.686;23.352;2022-09-28T06:22:17;44.25;;;26.60;;
41233;SDS011;26968;42.686;23.352;2022-09-28T06:24:42;39.88;;;26.00;;
41233;SDS011;26968;42.686;23.352;2022-09-28T06:27:08;51.35;;;27.05;;
41233;SDS011;26968;42.686;23.352;2022-09-28T06:29:33;48.30;;;27.13;;
41233;SDS011;26968;42.686;23.352;2022-09-28T06:31:58;52.33;;;27.58;;
41233;SDS011;26968;42.686;23.352;2022-09-28T06:34:24;34.88;;;22.95;;
41233;SDS011;26968;42.686;23.352;2022-09-28T06:36:49;40.45;;;24.48;;
41233;SDS011;26968;42.686;23.352;2022-09-28T06:39:15;34.90;;;21.30;;
41233;SDS011;26968;42.686;23.352;2022-09-28T06:41:40;29.85;;;19.73;;
41233;SDS011;26968;42.686;23.352;2022-09-28T06:44:06;30.83;;;22.13;;
41233;SDS011;26968;42.686;23.352;2022-09-28T06:46:31;36.42;;;21.55;;
41233;SDS011;26968;42.686;23.352;2022-09-28T06:48:57;33.92;;;21.63;;
41233;SDS011;26968;42.686;23.352;2022-09-28T06:51:22;39.25;;;21.52;;
41233;SDS011;26968;42.686;23.352;2022-09-28T06:53:49;37.15;;;21.80;;
41233;SDS011;26968;42.686;23.352;2022-09-28T06:56:17;31.77;;;21.25;;
41233;SDS011;26968;42.686;23.352;2022-09-28T06:58:45;33.28;;;21.52;;
41233;SDS011;26968;42.686;23.352;2022-09-28T07:01:10;31.85;;;20.85;;
41233;SDS011;26968;42.686;23.352;2022-09-28T07:03:36;30.48;;;21.85;;
41233;SDS011;26968;42.686;23.352;2022-09-28T07:06:02;32.28;;;22.65;;
41233;SDS011;26968;42.686;23.352;2022-09-28T07:08:28;37.78;;;24.88;;
41233;SDS011;26968;42.686;23.352;2022-09-28T07:10:53;46.15;;;26.60;;
41233;SDS011;26968;42.686;23.352;2022-09-28T07:13:22;46.70;;;27.02;;
41233;SDS011;26968;42.686;23.352;2022-09-28T07:15:53;52.05;;;31.23;;
41233;SDS011;26968;42.686;23.352;2022-09-28T07:18:19;60.33;;;33.55;;
41233;SDS011;26968;42.686;23.352;2022-09-28T07:20:45;55.45;;;29.88;;
41233;SDS011;26968;42.686;23.352;2022-09-28T07:23:11;41.20;;;27.08;;
41233;SDS011;26968;42.686;23.352;2022-09-28T07:25:36;36.83;;;24.25;;
41233;SDS011;26968;42.686;23.352;2022-09-28T07:28:04;37.00;;;25.60;;
41233;SDS011;26968;42.686;23.352;2022-09-28T07:30:31;37.92;;;24.33;;
41233;SDS011;26968;42.686;23.352;2022-09-28T07:32:59;36.90;;;22.95;;
41233;SDS011;26968;42.686;23.352;2022-09-28T07:35:25;28.67;;;17.45;;
41233;SDS011;26968;42.686;23.352;2022-09-28T07:38:00;27.80;;;17.10;;
41233;SDS011;26968;42.686;23.352;2022-09-28T07:40:28;22.77;;;15.82;;
41233;SDS011;26968;42.686;23.352;2022-09-28T07:43:12;23.20;;;16.27;;
41233;SDS011;26968;42.686;23.352;2022-09-28T07:45:38;28.60;;;16.83;;
41233;SDS011;26968;42.686;23.352;2022-09-28T07:48:04;30.95;;;18.77;;
41233;SDS011;26968;42.686;23.352;2022-09-28T07:50:30;25.10;;;17.02;;
41233;SDS011;26968;42.686;23.352;2022-09-28T07:52:56;31.20;;;18.52;;
41233;SDS011;26968;42.686;23.352;2022-09-28T07:55:21;32.33;;;18.40;;
41233;SDS011;26968;42.686;23.352;2022-09-28T07:57:52;35.28;;;18.20;;
41233;SDS011;26968;42.686;23.352;2022-09-28T08:00:20;30.98;;;19.50;;
41233;SDS011;26968;42.686;23.352;2022-09-28T08:02:45;33.95;;;19.85;;
41233;SDS011;26968;42.686;23.352;2022-09-28T08:05:12;36.55;;;20.83;;
41233;SDS011;26968;42.686;23.352;2022-09-28T08:07:37;30.83;;;17.48;;
41233;SDS011;26968;42.686;23.352;2022-09-28T08:10:03;29.85;;;17.15;;
41233;SDS011;26968;42.686;23.352;2022-09-28T08:12:29;34.22;;;16.15;;
41233;SDS011;26968;42.686;23.352;2022-09-28T08:14:58;31.65;;;16.85;;
41233;SDS011;26968;42.686;23.352;2022-09-28T08:17:24;33.88;;;15.40;;
41233;SDS011;26968;42.686;23.352;2022-09-28T08:19:49;31.77;;;13.25;;
41233;SDS011;26968;42.686;23.352;2022-09-28T08:22:33;24.83;;;12.35;;
41233;SDS011;26968;42.686;23.352;2022-09-28T08:24:58;25.23;;;12.25;;
41233;SDS011;26968;42.686;23.352;2022-09-28T08:27:24;19.67;;;10.35;;
41233;SDS011;26968;42.686;23.352;2022-09-28T08:29:49;19.88;;;9.30;;
41233;SDS011;26968;42.686;23.352;2022-09-28T08:32:16;19.63;;;8.75;;
41233;SDS011;26968;42.686;23.352;2022-09-28T08:34:42;15.77;;;6.60;;
41233;SDS011;26968;42.686;23.352;2022-09-28T08:37:08;18.25;;;8.05;;
41233;SDS011;26968;42.686;23.352;2022-09-28T08:39:35;13.90;;;7.40;;
41233;SDS011;26968;42.686;23.352;2022-09-28T08:44:41;13.50;;;6.55;;
41233;SDS011;26968;42.686;23.352;2022-09-28T08:47:52;18.10;;;6.55;;
41233;SDS011;26968;42.686;23.352;2022-09-28T08:50:30;18.45;;;7.35;;
41233;SDS011;26968;42.686;23.352;2022-09-28T08:53:02;24.80;;;7.60;;
41233;SDS011;26968;42.686;23.352;2022-09-28T08:55:36;22.52;;;7.50;;
41233;SDS011;26968;42.686;23.352;2022-09-28T08:58:10;27.20;;;7.50;;
41233;SDS011;26968;42.686;23.352;2022-09-28T09:00:49;13.13;;;5.97;;
41233;SDS011;26968;42.686;23.352;2022-09-28T09:03:20;16.23;;;6.45;;
41233;SDS011;26968;42.686;23.352;2022-09-28T09:11:21;13.23;;;6.03;;
41233;SDS011;26968;42.686;23.352;2022-09-28T09:19:37;18.83;;;6.30;;
41233;SDS011;26968;42.686;23.352;2022-09-28T09:22:15;17.60;;;6.32;;
41233;SDS011;26968;42.686;23.352;2022-09-28T09:25:32;17.52;;;5.75;;
41233;SDS011;26968;42.686;23.352;2022-09-28T09:30:26;25.38;;;7.32;;
41233;SDS011;26968;42.686;23.352;2022-09-28T09:38:52;17.33;;;6.20;;
41233;SDS011;26968;42.686;23.352;2022-09-28T09:41:34;16.65;;;5.15;;
41233;SDS011;26968;42.686;23.352;2022-09-28T09:47:01;17.33;;;5.95;;
41233;SDS011;26968;42.686;23.352;2022-09-28T09:49:36;17.92;;;6.88;;
41233;SDS011;26968;42.686;23.352;2022-09-28T09:52:31;20.25;;;6.70;;
41233;SDS011;26968;42.686;23.352;2022-09-28T09:55:18;18.38;;;7.70;;
41233;SDS011;26968;42.686;23.352;2022-09-28T09:57:56;13.85;;;5.18;;
41233;SDS011;26968;42.686;23.352;2022-09-28T10:00:46;16.35;;;4.60;;
41233;SDS011;26968;42.686;23.352;2022-09-28T10:03:21;21.27;;;4.72;;
41233;SDS011;26968;42.686;23.352;2022-09-28T10:05:52;13.23;;;4.47;;
41233;SDS011;26968;42.686;23.352;2022-09-28T10:08:23;13.00;;;4.82;;
41233;SDS011;26968;42.686;23.352;2022-09-28T10:11:34;18.95;;;4.85;;
41233;SDS011;26968;42.686;23.352;2022-09-28T10:13:46;9.48;;;3.22;;
41233;SDS011;26968;42.686;23.352;2022-09-28T10:16:13;9.95;;;3.10;;
41233;SDS011;26968;42.686;23.352;2022-09-28T10:18:41;6.30;;;2.72;;
41233;SDS011;26968;42.686;23.352;2022-09-28T10:21:14;7.80;;;2.88;;
41233;SDS011;26968;42.686;23.352;2022-09-28T10:23:42;6.78;;;3.30;;
41233;SDS011;26968;42.686;23.352;2022-09-28T10:26:16;14.70;;;4.10;;
41233;SDS011;26968;42.686;23.352;2022-09-28T10:28:56;10.65;;;2.90;;
41233;SDS011;26968;42.686;23.352;2022-09-28T10:34:03;7.13;;;2.67;;
41233;SDS011;26968;42.686;23.352;2022-09-28T10:36:43;7.60;;;3.05;;
41233;SDS011;26968;42.686;23.352;2022-09-28T10:39:35;18.02;;;3.10;;
41233;SDS011;26968;42.686;23.352;2022-09-28T10:42:05;8.05;;;2.90;;
41233;SDS011;26968;42.686;23.352;2022-09-28T10:44:34;10.27;;;2.20;;
41233;SDS011;26968;42.686;23.352;2022-09-28T10:47:22;5.03;;;1.80;;
41233;SDS011;26968;42.686;23.352;2022-09-28T10:49:50;8.43;;;2.20;;
41233;SDS011;26968;42.686;23.352;2022-09-28T10:52:37;15.65;;;4.13;;
41233;SDS011;26968;42.686;23.352;2022-09-28T10:55:30;6.65;;;2.20;;
41233;SDS011;26968;42.686;23.352;2022-09-28T10:58:00;9.25;;;2.40;;
41233;SDS011;26968;42.686;23.352;2022-09-28T11:00:48;10.63;;;2.47;;
41233;SDS011;26968;42.686;23.352;2022-09-28T11:03:16;10.40;;;3.33;;
41233;SDS011;26968;42.686;23.352;2022-09-28T11:05:57;9.68;;;2.10;;
41233;SDS011;26968;42.686;23.352;2022-09-28T11:08:30;8.13;;;2.00;;
41233;SDS011;26968;42.686;23.352;2022-09-28T11:11:11;6.20;;;2.25;;
41233;SDS011;26968;42.686;23.352;2022-09-28T11:14:00;8.35;;;2.78;;
41233;SDS011;26968;42.686;23.352;2022-09-28T11:16:29;13.00;;;3.70;;
41233;SDS011;26968;42.686;23.352;2022-09-28T11:18:57;8.70;;;3.25;;
41233;SDS011;26968;42.686;23.352;2022-09-28T11:21:28;12.70;;;2.65;;
41233;SDS011;26968;42.686;23.352;2022-09-28T11:26:42;10.27;;;2.25;;
41233;SDS011;26968;42.686;23.352;2022-09-28T11:29:43;7.78;;;2.33;;
41233;SDS011;26968;42.686;23.352;2022-09-28T11:32:05;11.48;;;2.78;;
41233;SDS011;26968;42.686;23.352;2022-09-28T11:34:36;8.13;;;2.25;;
41233;SDS011;26968;42.686;23.352;2022-09-28T11:48:12;6.47;;;2.13;;
41233;SDS011;26968;42.686;23.352;2022-09-28T11:50:44;8.02;;;1.67;;
41233;SDS011;26968;42.686;23.352;2022-09-28T11:58:46;6.18;;;1.50;;
41233;SDS011;26968;42.686;23.352;2022-09-28T12:03:56;4.38;;;1.90;;
41233;SDS011;26968;42.686;23.352;2022-09-28T12:06:31;4.50;;;2.50;;
41233;SDS011;26968;42.686;23.352;2022-09-28T12:09:16;12.27;;;2.53;;
41233;SDS011;26968;42.686;23.352;2022-09-28T12:11:50;3.90;;;2.10;;
41233;SDS011;26968;42.686;23.352;2022-09-28T12:14:27;10.23;;;2.13;;
41233;SDS011;26968;42.686;23.352;2022-09-28T12:17:00;6.63;;;1.50;;
41233;SDS011;26968;42.686;23.352;2022-09-28T12:19:54;5.95;;;1.83;;
41233;SDS011;26968;42.686;23.352;2022-09-28T12:22:44;4.43;;;2.00;;
41233;SDS011;26968;42.686;23.352;2022-09-28T12:25:18;9.50;;;2.10;;
41233;SDS011;26968;42.686;23.352;2022-09-28T12:30:18;4.93;;;1.60;;
41233;SDS011;26968;42.686;23.352;2022-09-28T12:32:46;4.47;;;1.75;;
41233;SDS011;26968;42.686;23.352;2022-09-28T12:40:51;6.53;;;1.70;;
41233;SDS011;26968;42.686;23.352;2022-09-28T12:49:29;11.55;;;2.80;;
41233;SDS011;26968;42.686;23.352;2022-09-28T12:52:01;7.30;;;1.80;;
41233;SDS011;26968;42.686;23.352;2022-09-28T12:55:02;8.77;;;2.00;;
41233;SDS011;26968;42.686;23.352;2022-09-28T12:57:52;7.22;;;2.00;;
41233;SDS011;26968;42.686;23.352;2022-09-28T13:00:34;7.63;;;1.92;;
41233;SDS011;26968;42.686;23.352;2022-09-28T13:08:16;5.80;;;1.85;;
41233;SDS011;26968;42.686;23.352;2022-09-28T13:10:53;9.93;;;1.52;;
41233;SDS011;26968;42.686;23.352;2022-09-28T13:24:57;6.07;;;2.20;;
41233;SDS011;26968;42.686;23.352;2022-09-28T13:27:36;11.23;;;1.73;;
41233;SDS011;26968;42.686;23.352;2022-09-28T13:30:04;9.10;;;2.28;;
41233;SDS011;26968;42.686;23.352;2022-09-28T13:32:32;6.80;;;2.05;;
41233;SDS011;26968;42.686;23.352;2022-09-28T13:35:00;6.38;;;1.60;;
41233;SDS011;26968;42.686;23.352;2022-09-28T13:37:29;8.80;;;2.33;;
41233;SDS011;26968;42.686;23.352;2022-09-28T13:39:59;5.07;;;1.38;;
41233;SDS011;26968;42.686;23.352;2022-09-28T13:50:33;9.30;;;2.03;;
41233;SDS011;26968;42.686;23.352;2022-09-28T13:53:23;8.20;;;1.70;;
41233;SDS011;26968;42.686;23.352;2022-09-28T13:59:12;2.50;;;0.95;;
41233;SDS011;26968;42.686;23.352;2022-09-28T14:04:24;3.97;;;1.13;;
41233;SDS011;26968;42.686;23.352;2022-09-28T14:07:14;3.55;;;1.35;;
41233;SDS011;26968;42.686;23.352;2022-09-28T14:10:08;5.72;;;1.60;;
41233;SDS011;26968;42.686;23.352;2022-09-28T14:13:08;4.30;;;1.63;;
41233;SDS011;26968;42.686;23.352;2022-09-28T14:21:04;5.13;;;1.40;;
41233;SDS011;26968;42.686;23.352;2022-09-28T14:26:18;7.50;;;1.17;;
41233;SDS011;26968;42.686;23.352;2022-09-28T14:31:52;6.93;;;1.42;;
41233;SDS011;26968;42.686;23.352;2022-09-28T14:34:24;5.97;;;1.60;;
41233;SDS011;26968;42.686;23.352;2022-09-28T14:37:16;5.35;;;1.40;;
41233;SDS011;26968;42.686;23.352;2022-09-28T14:40:16;4.18;;;1.42;;
41233;SDS011;26968;42.686;23.352;2022-09-28T14:43:24;2.70;;;1.00;;
41233;SDS011;26968;42.686;23.352;2022-09-28T14:48:47;6.97;;;1.83;;
41233;SDS011;26968;42.686;23.352;2022-09-28T14:53:51;4.72;;;1.45;;
41233;SDS011;26968;42.686;23.352;2022-09-28T14:56:19;18.15;;;1.60;;
41233;SDS011;26968;42.686;23.352;2022-09-28T14:58:45;7.75;;;1.83;;
41233;SDS011;26968;42.686;23.352;2022-09-28T15:01:17;8.18;;;1.40;;
41233;SDS011;26968;42.686;23.352;2022-09-28T15:03:45;4.03;;;1.40;;
41233;SDS011;26968;42.686;23.352;2022-09-28T15:06:15;15.20;;;2.03;;
41233;SDS011;26968;42.686;23.352;2022-09-28T15:08:41;5.65;;;1.52;;
41233;SDS011;26968;42.686;23.352;2022-09-28T15:11:17;8.23;;;1.95;;
41233;SDS011;26968;42.686;23.352;2022-09-28T15:13:46;7.15;;;1.83;;
41233;SDS011;26968;42.686;23.352;2022-09-28T15:16:12;9.55;;;1.38;;
41233;SDS011;26968;42.686;23.352;2022-09-28T15:21:55;5.70;;;1.50;;
41233;SDS011;26968;42.686;23.352;2022-09-28T15:24:30;5.47;;;1.40;;
41233;SDS011;26968;42.686;23.352;2022-09-28T15:27:01;5.70;;;1.38;;
41233;SDS011;26968;42.686;23.352;2022-09-28T15:29:36;8.10;;;1.58;;
41233;SDS011;26968;42.686;23.352;2022-09-28T15:32:02;8.23;;;1.80;;
41233;SDS011;26968;42.686;23.352;2022-09-28T15:34:31;5.70;;;1.60;;
41233;SDS011;26968;42.686;23.352;2022-09-28T15:37:16;5.22;;;1.80;;
41233;SDS011;26968;42.686;23.352;2022-09-28T15:39:46;9.43;;;1.70;;
41233;SDS011;26968;42.686;23.352;2022-09-28T15:42:16;3.92;;;1.23;;
41233;SDS011;26968;42.686;23.352;2022-09-28T15:44:42;7.97;;;2.05;;
41233;SDS011;26968;42.686;23.352;2022-09-28T15:47:25;10.52;;;3.15;;
41233;SDS011;26968;42.686;23.352;2022-09-28T15:49:54;14.52;;;3.50;;
41233;SDS011;26968;42.686;23.352;2022-09-28T15:54:54;9.93;;;2.72;;
41233;SDS011;26968;42.686;23.352;2022-09-28T15:57:28;9.68;;;2.53;;
41233;SDS011;26968;42.686;23.352;2022-09-28T16:00:05;14.15;;;3.38;;
41233;SDS011;26968;42.686;23.352;2022-09-28T16:02:55;15.60;;;2.88;;
41233;SDS011;26968;42.686;23.352;2022-09-28T16:05:29;10.52;;;2.45;;
41233;SDS011;26968;42.686;23.352;2022-09-28T16:08:00;12.25;;;3.63;;
41233;SDS011;26968;42.686;23.352;2022-09-28T16:12:58;18.55;;;4.82;;
41233;SDS011;26968;42.686;23.352;2022-09-28T16:15:34;12.65;;;3.28;;
41233;SDS011;26968;42.686;23.352;2022-09-28T16:18:03;13.18;;;3.20;;
41233;SDS011;26968;42.686;23.352;2022-09-28T16:20:38;15.63;;;4.22;;
41233;SDS011;26968;42.686;23.352;2022-09-28T16:23:13;11.50;;;4.38;;
41233;SDS011;26968;42.686;23.352;2022-09-28T16:25:58;12.20;;;3.15;;
41233;SDS011;26968;42.686;23.352;2022-09-28T16:36:40;11.05;;;3.28;;
41233;SDS011;26968;42.686;23.352;2022-09-28T16:39:08;10.70;;;3.30;;
41233;SDS011;26968;42.686;23.352;2022-09-28T16:41:39;13.32;;;3.75;;
41233;SDS011;26968;42.686;23.352;2022-09-28T16:44:18;26.92;;;5.35;;
41233;SDS011;26968;42.686;23.352;2022-09-28T16:46:48;21.70;;;5.80;;
41233;SDS011;26968;42.686;23.352;2022-09-28T16:49:15;10.80;;;3.15;;
41233;SDS011;26968;42.686;23.352;2022-09-28T16:51:42;19.10;;;3.53;;
41233;SDS011;26968;42.686;23.352;2022-09-28T16:54:17;11.85;;;3.20;;
41233;SDS011;26968;42.686;23.352;2022-09-28T16:57:07;27.08;;;10.07;;
41233;SDS011;26968;42.686;23.352;2022-09-28T16:59:35;23.92;;;8.07;;
41233;SDS011;26968;42.686;23.352;2022-09-28T17:02:17;22.00;;;6.20;;
41233;SDS011;26968;42.686;23.352;2022-09-28T17:04:43;17.55;;;5.93;;
41233;SDS011;26968;42.686;23.352;2022-09-28T17:07:09;25.65;;;5.28;;
41233;SDS011;26968;42.686;23.352;2022-09-28T17:09:37;18.17;;;5.55;;
41233;SDS011;26968;42.686;23.352;2022-09-28T17:12:07;29.02;;;5.78;;
41233;SDS011;26968;42.686;23.352;2022-09-28T17:14:40;13.82;;;5.10;;
41233;SDS011;26968;42.686;23.352;2022-09-28T17:17:06;12.98;;;5.53;;
41233;SDS011;26968;42.686;23.352;2022-09-28T17:19:32;19.88;;;4.22;;
41233;SDS011;26968;42.686;23.352;2022-09-28T17:21:58;14.65;;;3.95;;
41233;SDS011;26968;42.686;23.352;2022-09-28T17:24:23;17.42;;;4.18;;
41233;SDS011;26968;42.686;23.352;2022-09-28T17:26:49;12.90;;;4.78;;
41233;SDS011;26968;42.686;23.352;2022-09-28T17:29:15;13.93;;;3.90;;
41233;SDS011;26968;42.686;23.352;2022-09-28T17:31:41;16.20;;;5.05;;